sensor_id;sensor_type;location;lat;lon;timestamp;P1;durP1;ratioP1;P2;durP2;ratioP2
33108;SDS011;19481;51.118;6.940;2023-09-08T00:02:51;4.00;;;2.42;;
33108;SDS011;19481;51.118;6.940;2023-09-08T00:07:54;4.32;;;2.42;;
33108;SDS011;19481;51.118;6.940;2023-09-08T00:12:56;2.97;;;2.67;;
33108;SDS011;19481;51.118;6.940;2023-09-08T00:17:57;8.43;;;2.50;;
33108;SDS011;19481;51.118;6.940;2023-09-08T00:23:00;3.25;;;2.60;;
33108;SDS011;19481;51.118;6.940;2023-09-08T00:28:02;3.28;;;2.70;;
33108;SDS011;19481;51.118;6.940;2023-09-08T00:33:04;8.20;;;2.63;;
33108;SDS011;19481;51.118;6.940;2023-09-08T00:38:10;3.42;;;2.70;;
33108;SDS011;19481;51.118;6.940;2023-09-08T00:43:11;4.43;;;2.72;;
33108;SDS011;19481;51.118;6.940;2023-09-08T00:48:13;4.88;;;2.85;;
33108;SDS011;19481;51.118;6.940;2023-09-08T00:53:16;3.50;;;2.50;;
33108;SDS011;19481;51.118;6.940;2023-09-08T00:58:18;3.72;;;2.70;;
33108;SDS011;19481;51.118;6.940;2023-09-08T01:03:20;10.73;;;2.92;;
33108;SDS011;19481;51.118;6.940;2023-09-08T01:08:23;4.47;;;2.63;;
33108;SDS011;19481;51.118;6.940;2023-09-08T01:13:25;4.20;;;3.00;;
33108;SDS011;19481;51.118;6.940;2023-09-08T01:18:27;3.83;;;2.88;;
33108;SDS011;19481;51.118;6.940;2023-09-08T01:23:32;3.10;;;2.80;;
33108;SDS011;19481;51.118;6.940;2023-09-08T01:28:44;3.28;;;2.97;;
33108;SDS011;19481;51.118;6.940;2023-09-08T01:33:50;3.97;;;2.60;;
33108;SDS011;19481;51.118;6.940;2023-09-08T01:38:52;4.60;;;3.17;;
33108;SDS011;19481;51.118;6.940;2023-09-08T01:43:55;5.85;;;3.33;;
33108;SDS011;19481;51.118;6.940;2023-09-08T01:48:57;3.60;;;2.80;;
33108;SDS011;19481;51.118;6.940;2023-09-08T01:53:59;6.50;;;3.20;;
33108;SDS011;19481;51.118;6.940;2023-09-08T01:59:02;6.32;;;3.13;;
33108;SDS011;19481;51.118;6.940;2023-09-08T02:04:05;3.40;;;3.10;;
33108;SDS011;19481;51.118;6.940;2023-09-08T02:09:07;8.60;;;3.10;;
33108;SDS011;19481;51.118;6.940;2023-09-08T02:14:11;3.08;;;2.83;;
33108;SDS011;19481;51.118;6.940;2023-09-08T02:19:12;3.30;;;3.00;;
33108;SDS011;19481;51.118;6.940;2023-09-08T02:24:14;3.65;;;3.08;;
33108;SDS011;19481;51.118;6.940;2023-09-08T02:29:17;3.30;;;2.88;;
33108;SDS011;19481;51.118;6.940;2023-09-08T02:34:19;4.35;;;3.10;;
33108;SDS011;19481;51.118;6.940;2023-09-08T02:39:20;4.05;;;3.28;;
33108;SDS011;19481;51.118;6.940;2023-09-08T02:44:25;4.28;;;3.50;;
33108;SDS011;19481;51.118;6.940;2023-09-08T02:49:27;6.53;;;3.33;;
33108;SDS011;19481;51.118;6.940;2023-09-08T02:54:29;4.60;;;3.03;;
33108;SDS011;19481;51.118;6.940;2023-09-08T02:59:32;3.30;;;2.90;;
33108;SDS011;19481;51.118;6.940;2023-09-08T03:04:33;4.47;;;3.25;;
33108;SDS011;19481;51.118;6.940;2023-09-08T03:09:35;6.47;;;3.70;;
33108;SDS011;19481;51.118;6.940;2023-09-08T03:14:38;3.72;;;3.40;;
33108;SDS011;19481;51.118;6.940;2023-09-08T03:19:39;3.90;;;3.47;;
33108;SDS011;19481;51.118;6.940;2023-09-08T03:24:41;4.45;;;3.53;;
33108;SDS011;19481;51.118;6.940;2023-09-08T03:29:44;6.57;;;3.03;;
33108;SDS011;19481;51.118;6.940;2023-09-08T03:34:46;3.97;;;3.42;;
33108;SDS011;19481;51.118;6.940;2023-09-08T03:39:47;6.50;;;3.13;;
33108;SDS011;19481;51.118;6.940;2023-09-08T03:44:50;4.85;;;3.50;;
33108;SDS011;19481;51.118;6.940;2023-09-08T03:49:52;5.30;;;3.97;;
33108;SDS011;19481;51.118;6.940;2023-09-08T03:54:53;3.92;;;3.30;;
33108;SDS011;19481;51.118;6.940;2023-09-08T03:59:56;10.88;;;4.05;;
33108;SDS011;19481;51.118;6.940;2023-09-08T04:04:58;4.80;;;3.95;;
33108;SDS011;19481;51.118;6.940;2023-09-08T04:10:00;5.32;;;3.38;;
33108;SDS011;19481;51.118;6.940;2023-09-08T04:15:03;4.80;;;3.80;;
33108;SDS011;19481;51.118;6.940;2023-09-08T04:20:05;3.65;;;3.25;;
33108;SDS011;19481;51.118;6.940;2023-09-08T04:25:08;4.15;;;3.72;;
33108;SDS011;19481;51.118;6.940;2023-09-08T04:30:14;5.53;;;3.05;;
33108;SDS011;19481;51.118;6.940;2023-09-08T04:35:15;5.30;;;4.00;;
33108;SDS011;19481;51.118;6.940;2023-09-08T04:40:17;4.20;;;3.40;;
33108;SDS011;19481;51.118;6.940;2023-09-08T04:45:20;6.53;;;3.60;;
33108;SDS011;19481;51.118;6.940;2023-09-08T04:50:21;6.40;;;3.72;;
33108;SDS011;19481;51.118;6.940;2023-09-08T04:55:23;5.55;;;3.83;;
33108;SDS011;19481;51.118;6.940;2023-09-08T05:00:26;3.70;;;3.28;;
33108;SDS011;19481;51.118;6.940;2023-09-08T05:05:28;6.82;;;4.13;;
33108;SDS011;19481;51.118;6.940;2023-09-08T05:10:29;9.27;;;3.90;;
33108;SDS011;19481;51.118;6.940;2023-09-08T05:15:32;5.20;;;3.60;;
33108;SDS011;19481;51.118;6.940;2023-09-08T05:20:34;3.65;;;3.22;;
33108;SDS011;19481;51.118;6.940;2023-09-08T05:25:35;4.80;;;3.90;;
33108;SDS011;19481;51.118;6.940;2023-09-08T05:30:38;5.25;;;4.00;;
33108;SDS011;19481;51.118;6.940;2023-09-08T05:35:41;6.68;;;4.03;;
33108;SDS011;19481;51.118;6.940;2023-09-08T05:40:43;6.68;;;3.90;;
33108;SDS011;19481;51.118;6.940;2023-09-08T05:45:46;7.43;;;3.78;;
33108;SDS011;19481;51.118;6.940;2023-09-08T05:50:48;8.35;;;4.10;;
33108;SDS011;19481;51.118;6.940;2023-09-08T05:55:49;4.13;;;3.53;;
33108;SDS011;19481;51.118;6.940;2023-09-08T06:00:53;5.70;;;3.53;;
33108;SDS011;19481;51.118;6.940;2023-09-08T06:05:55;5.38;;;3.85;;
33108;SDS011;19481;51.118;6.940;2023-09-08T06:10:57;9.48;;;3.78;;
33108;SDS011;19481;51.118;6.940;2023-09-08T06:16:00;8.70;;;4.43;;
33108;SDS011;19481;51.118;6.940;2023-09-08T06:21:02;4.65;;;3.40;;
33108;SDS011;19481;51.118;6.940;2023-09-08T06:26:03;4.05;;;3.35;;
33108;SDS011;19481;51.118;6.940;2023-09-08T06:31:06;5.65;;;3.67;;
33108;SDS011;19481;51.118;6.940;2023-09-08T06:36:08;4.28;;;3.63;;
33108;SDS011;19481;51.118;6.940;2023-09-08T06:41:10;8.50;;;3.67;;
33108;SDS011;19481;51.118;6.940;2023-09-08T06:46:13;5.68;;;3.75;;
33108;SDS011;19481;51.118;6.940;2023-09-08T06:51:15;7.80;;;3.90;;
33108;SDS011;19481;51.118;6.940;2023-09-08T06:56:16;7.97;;;3.38;;
33108;SDS011;19481;51.118;6.940;2023-09-08T07:01:19;10.10;;;2.95;;
33108;SDS011;19481;51.118;6.940;2023-09-08T07:06:21;6.03;;;2.83;;
33108;SDS011;19481;51.118;6.940;2023-09-08T07:11:23;6.00;;;2.83;;
33108;SDS011;19481;51.118;6.940;2023-09-08T07:16:26;5.22;;;2.92;;
33108;SDS011;19481;51.118;6.940;2023-09-08T07:21:27;5.35;;;2.45;;
33108;SDS011;19481;51.118;6.940;2023-09-08T07:26:29;2.85;;;2.40;;
33108;SDS011;19481;51.118;6.940;2023-09-08T07:31:32;3.00;;;2.28;;
33108;SDS011;19481;51.118;6.940;2023-09-08T07:36:33;5.88;;;2.08;;
33108;SDS011;19481;51.118;6.940;2023-09-08T07:41:36;4.40;;;2.60;;
33108;SDS011;19481;51.118;6.940;2023-09-08T07:46:41;5.20;;;2.35;;
33108;SDS011;19481;51.118;6.940;2023-09-08T07:51:44;7.53;;;2.38;;
33108;SDS011;19481;51.118;6.940;2023-09-08T07:56:46;5.30;;;2.60;;
33108;SDS011;19481;51.118;6.940;2023-09-08T08:01:49;7.15;;;2.58;;
33108;SDS011;19481;51.118;6.940;2023-09-08T08:06:50;3.15;;;2.35;;
33108;SDS011;19481;51.118;6.940;2023-09-08T08:11:52;3.08;;;2.53;;
33108;SDS011;19481;51.118;6.940;2023-09-08T08:16:55;4.13;;;2.83;;
33108;SDS011;19481;51.118;6.940;2023-09-08T08:21:57;2.38;;;2.17;;
33108;SDS011;19481;51.118;6.940;2023-09-08T08:26:58;3.08;;;2.30;;
33108;SDS011;19481;51.118;6.940;2023-09-08T08:32:04;3.10;;;2.30;;
33108;SDS011;19481;51.118;6.940;2023-09-08T08:37:06;7.07;;;2.40;;
33108;SDS011;19481;51.118;6.940;2023-09-08T08:42:08;3.97;;;2.45;;
33108;SDS011;19481;51.118;6.940;2023-09-08T08:47:11;4.38;;;2.40;;
33108;SDS011;19481;51.118;6.940;2023-09-08T08:52:15;6.95;;;2.65;;
33108;SDS011;19481;51.118;6.940;2023-09-08T08:57:18;2.90;;;2.15;;
33108;SDS011;19481;51.118;6.940;2023-09-08T09:02:22;2.50;;;2.22;;
33108;SDS011;19481;51.118;6.940;2023-09-08T09:07:27;4.57;;;2.40;;
33108;SDS011;19481;51.118;6.940;2023-09-08T09:12:29;5.53;;;2.30;;
33108;SDS011;19481;51.118;6.940;2023-09-08T09:17:32;2.95;;;2.13;;
33108;SDS011;19481;51.118;6.940;2023-09-08T09:22:36;6.00;;;2.42;;
33108;SDS011;19481;51.118;6.940;2023-09-08T09:27:38;2.50;;;2.25;;
33108;SDS011;19481;51.118;6.940;2023-09-08T09:32:42;3.00;;;2.42;;
33108;SDS011;19481;51.118;6.940;2023-09-08T09:37:44;3.08;;;2.00;;
33108;SDS011;19481;51.118;6.940;2023-09-08T09:42:48;5.18;;;2.45;;
33108;SDS011;19481;51.118;6.940;2023-09-08T09:47:52;4.93;;;2.40;;
33108;SDS011;19481;51.118;6.940;2023-09-08T09:52:55;4.47;;;2.60;;
33108;SDS011;19481;51.118;6.940;2023-09-08T09:57:58;2.70;;;2.50;;
33108;SDS011;19481;51.118;6.940;2023-09-08T10:03:05;2.92;;;2.35;;
33108;SDS011;19481;51.118;6.940;2023-09-08T10:08:07;2.38;;;2.15;;
33108;SDS011;19481;51.118;6.940;2023-09-08T10:13:09;2.40;;;2.20;;
33108;SDS011;19481;51.118;6.940;2023-09-08T10:18:13;2.55;;;2.20;;
33108;SDS011;19481;51.118;6.940;2023-09-08T10:23:22;3.42;;;2.17;;
33108;SDS011;19481;51.118;6.940;2023-09-08T10:28:28;4.63;;;2.28;;
33108;SDS011;19481;51.118;6.940;2023-09-08T10:33:32;5.82;;;2.65;;
33108;SDS011;19481;51.118;6.940;2023-09-08T10:38:35;6.70;;;2.70;;
33108;SDS011;19481;51.118;6.940;2023-09-08T10:43:37;4.95;;;2.47;;
33108;SDS011;19481;51.118;6.940;2023-09-08T10:48:41;3.38;;;2.70;;
33108;SDS011;19481;51.118;6.940;2023-09-08T10:53:46;2.63;;;2.25;;
33108;SDS011;19481;51.118;6.940;2023-09-08T10:58:48;2.97;;;2.35;;
33108;SDS011;19481;51.118;6.940;2023-09-08T11:03:52;2.67;;;2.47;;
33108;SDS011;19481;51.118;6.940;2023-09-08T11:08:54;6.50;;;2.58;;
33108;SDS011;19481;51.118;6.940;2023-09-08T11:13:56;9.45;;;2.45;;
33108;SDS011;19481;51.118;6.940;2023-09-08T11:18:59;5.40;;;2.40;;
33108;SDS011;19481;51.118;6.940;2023-09-08T11:24:05;3.33;;;2.38;;
33108;SDS011;19481;51.118;6.940;2023-09-08T11:29:07;3.13;;;2.63;;
33108;SDS011;19481;51.118;6.940;2023-09-08T11:34:10;3.40;;;2.67;;
33108;SDS011;19481;51.118;6.940;2023-09-08T11:39:14;3.20;;;2.25;;
33108;SDS011;19481;51.118;6.940;2023-09-08T11:44:16;2.72;;;2.47;;
33108;SDS011;19481;51.118;6.940;2023-09-08T11:49:20;2.92;;;2.53;;
33108;SDS011;19481;51.118;6.940;2023-09-08T11:54:23;7.68;;;2.75;;
33108;SDS011;19481;51.118;6.940;2023-09-08T11:59:25;4.70;;;2.40;;
33108;SDS011;19481;51.118;6.940;2023-09-08T12:04:28;2.83;;;2.50;;
33108;SDS011;19481;51.118;6.940;2023-09-08T12:09:30;2.92;;;2.63;;
33108;SDS011;19481;51.118;6.940;2023-09-08T12:14:39;2.70;;;2.45;;
33108;SDS011;19481;51.118;6.940;2023-09-08T12:19:43;8.23;;;2.90;;
33108;SDS011;19481;51.118;6.940;2023-09-08T12:24:56;3.00;;;2.40;;
33108;SDS011;19481;51.118;6.940;2023-09-08T12:29:59;2.78;;;2.50;;
33108;SDS011;19481;51.118;6.940;2023-09-08T12:35:03;4.10;;;2.50;;
33108;SDS011;19481;51.118;6.940;2023-09-08T12:40:07;3.00;;;2.70;;
33108;SDS011;19481;51.118;6.940;2023-09-08T12:45:09;4.82;;;2.33;;
33108;SDS011;19481;51.118;6.940;2023-09-08T12:50:12;2.83;;;2.60;;
33108;SDS011;19481;51.118;6.940;2023-09-08T12:55:14;2.50;;;2.30;;
33108;SDS011;19481;51.118;6.940;2023-09-08T13:00:16;3.40;;;3.08;;
33108;SDS011;19481;51.118;6.940;2023-09-08T13:05:19;10.45;;;3.50;;
33108;SDS011;19481;51.118;6.940;2023-09-08T13:10:21;5.25;;;3.92;;
33108;SDS011;19481;51.118;6.940;2023-09-08T13:15:22;3.75;;;2.92;;
33108;SDS011;19481;51.118;6.940;2023-09-08T13:20:25;3.00;;;2.70;;
33108;SDS011;19481;51.118;6.940;2023-09-08T13:25:27;6.03;;;2.47;;
33108;SDS011;19481;51.118;6.940;2023-09-08T13:30:29;3.15;;;2.67;;
33108;SDS011;19481;51.118;6.940;2023-09-08T13:35:32;4.07;;;2.30;;
33108;SDS011;19481;51.118;6.940;2023-09-08T13:40:34;5.30;;;2.42;;
33108;SDS011;19481;51.118;6.940;2023-09-08T13:45:36;7.80;;;2.38;;
33108;SDS011;19481;51.118;6.940;2023-09-08T13:50:39;5.88;;;2.38;;
33108;SDS011;19481;51.118;6.940;2023-09-08T13:55:40;3.72;;;2.22;;
33108;SDS011;19481;51.118;6.940;2023-09-08T14:00:43;3.42;;;2.70;;
33108;SDS011;19481;51.118;6.940;2023-09-08T14:05:46;5.05;;;2.70;;
33108;SDS011;19481;51.118;6.940;2023-09-08T14:10:47;2.42;;;2.20;;
33108;SDS011;19481;51.118;6.940;2023-09-08T14:15:49;3.88;;;2.67;;
33108;SDS011;19481;51.118;6.940;2023-09-08T14:20:52;5.45;;;2.88;;
33108;SDS011;19481;51.118;6.940;2023-09-08T14:25:54;4.60;;;2.42;;
33108;SDS011;19481;51.118;6.940;2023-09-08T14:30:56;5.53;;;2.63;;
33108;SDS011;19481;51.118;6.940;2023-09-08T14:35:59;2.53;;;2.33;;
33108;SDS011;19481;51.118;6.940;2023-09-08T14:41:01;3.42;;;2.40;;
33108;SDS011;19481;51.118;6.940;2023-09-08T14:46:03;2.95;;;2.35;;
33108;SDS011;19481;51.118;6.940;2023-09-08T14:51:06;2.95;;;2.38;;
33108;SDS011;19481;51.118;6.940;2023-09-08T14:56:08;3.22;;;2.08;;
33108;SDS011;19481;51.118;6.940;2023-09-08T15:01:10;2.72;;;2.10;;
33108;SDS011;19481;51.118;6.940;2023-09-08T15:06:15;6.45;;;2.20;;
33108;SDS011;19481;51.118;6.940;2023-09-08T15:11:17;3.13;;;2.30;;
33108;SDS011;19481;51.118;6.940;2023-09-08T15:16:18;2.70;;;2.30;;
33108;SDS011;19481;51.118;6.940;2023-09-08T15:21:21;2.78;;;2.35;;
33108;SDS011;19481;51.118;6.940;2023-09-08T15:26:27;2.72;;;2.30;;
33108;SDS011;19481;51.118;6.940;2023-09-08T15:31:29;2.42;;;2.22;;
33108;SDS011;19481;51.118;6.940;2023-09-08T15:36:32;3.03;;;2.45;;
33108;SDS011;19481;51.118;6.940;2023-09-08T15:41:33;3.90;;;2.80;;
33108;SDS011;19481;51.118;6.940;2023-09-08T15:46:35;7.60;;;2.60;;
33108;SDS011;19481;51.118;6.940;2023-09-08T15:51:38;2.20;;;2.00;;
33108;SDS011;19481;51.118;6.940;2023-09-08T15:56:40;5.13;;;2.17;;
33108;SDS011;19481;51.118;6.940;2023-09-08T16:01:41;2.60;;;2.40;;
33108;SDS011;19481;51.118;6.940;2023-09-08T16:06:44;2.53;;;2.30;;
33108;SDS011;19481;51.118;6.940;2023-09-08T16:11:46;3.67;;;2.72;;
33108;SDS011;19481;51.118;6.940;2023-09-08T16:16:48;5.22;;;2.40;;
33108;SDS011;19481;51.118;6.940;2023-09-08T16:21:51;2.50;;;2.30;;
33108;SDS011;19481;51.118;6.940;2023-09-08T16:26:52;6.53;;;2.63;;
33108;SDS011;19481;51.118;6.940;2023-09-08T16:31:56;3.95;;;2.50;;
33108;SDS011;19481;51.118;6.940;2023-09-08T16:36:59;3.33;;;2.28;;
33108;SDS011;19481;51.118;6.940;2023-09-08T16:42:00;4.70;;;2.33;;
33108;SDS011;19481;51.118;6.940;2023-09-08T16:47:02;5.22;;;2.60;;
33108;SDS011;19481;51.118;6.940;2023-09-08T16:52:05;3.10;;;2.30;;
33108;SDS011;19481;51.118;6.940;2023-09-08T16:57:07;1.95;;;1.75;;
33108;SDS011;19481;51.118;6.940;2023-09-08T17:02:09;3.75;;;2.47;;
33108;SDS011;19481;51.118;6.940;2023-09-08T17:07:12;3.03;;;2.33;;
33108;SDS011;19481;51.118;6.940;2023-09-08T17:12:14;3.97;;;2.75;;
33108;SDS011;19481;51.118;6.940;2023-09-08T17:17:16;3.90;;;2.42;;
33108;SDS011;19481;51.118;6.940;2023-09-08T17:22:19;3.05;;;2.30;;
33108;SDS011;19481;51.118;6.940;2023-09-08T17:27:21;2.97;;;2.63;;
33108;SDS011;19481;51.118;6.940;2023-09-08T17:32:22;8.10;;;2.50;;
33108;SDS011;19481;51.118;6.940;2023-09-08T17:37:25;12.02;;;2.70;;
33108;SDS011;19481;51.118;6.940;2023-09-08T17:42:27;5.57;;;2.97;;
33108;SDS011;19481;51.118;6.940;2023-09-08T17:47:28;5.32;;;3.00;;
33108;SDS011;19481;51.118;6.940;2023-09-08T17:52:31;3.65;;;3.33;;
33108;SDS011;19481;51.118;6.940;2023-09-08T17:57:33;4.93;;;2.65;;
33108;SDS011;19481;51.118;6.940;2023-09-08T18:02:35;5.35;;;3.10;;
33108;SDS011;19481;51.118;6.940;2023-09-08T18:07:38;5.35;;;2.92;;
33108;SDS011;19481;51.118;6.940;2023-09-08T18:12:40;5.45;;;4.45;;
33108;SDS011;19481;51.118;6.940;2023-09-08T18:17:42;5.28;;;3.13;;
33108;SDS011;19481;51.118;6.940;2023-09-08T18:22:48;5.00;;;3.45;;
33108;SDS011;19481;51.118;6.940;2023-09-08T18:27:54;8.02;;;3.08;;
33108;SDS011;19481;51.118;6.940;2023-09-08T18:32:56;9.32;;;4.70;;
33108;SDS011;19481;51.118;6.940;2023-09-08T18:37:59;8.70;;;4.93;;
33108;SDS011;19481;51.118;6.940;2023-09-08T18:43:00;11.45;;;7.55;;
33108;SDS011;19481;51.118;6.940;2023-09-08T18:48:02;12.35;;;7.70;;
33108;SDS011;19481;51.118;6.940;2023-09-08T18:53:06;10.23;;;7.25;;
33108;SDS011;19481;51.118;6.940;2023-09-08T18:58:07;15.27;;;6.80;;
33108;SDS011;19481;51.118;6.940;2023-09-08T19:03:09;8.15;;;5.30;;
33108;SDS011;19481;51.118;6.940;2023-09-08T19:08:12;8.32;;;5.50;;
33108;SDS011;19481;51.118;6.940;2023-09-08T19:13:14;7.65;;;4.75;;
33108;SDS011;19481;51.118;6.940;2023-09-08T19:18:15;7.80;;;4.22;;
33108;SDS011;19481;51.118;6.940;2023-09-08T19:23:18;6.90;;;3.72;;
33108;SDS011;19481;51.118;6.940;2023-09-08T19:28:20;9.75;;;3.83;;
33108;SDS011;19481;51.118;6.940;2023-09-08T19:33:22;6.05;;;4.20;;
33108;SDS011;19481;51.118;6.940;2023-09-08T19:38:25;4.93;;;4.07;;
33108;SDS011;19481;51.118;6.940;2023-09-08T19:43:26;5.35;;;4.28;;
33108;SDS011;19481;51.118;6.940;2023-09-08T19:48:28;9.48;;;4.95;;
33108;SDS011;19481;51.118;6.940;2023-09-08T19:53:31;9.88;;;4.45;;
33108;SDS011;19481;51.118;6.940;2023-09-08T19:58:33;7.75;;;4.50;;
33108;SDS011;19481;51.118;6.940;2023-09-08T20:03:34;6.38;;;4.28;;
33108;SDS011;19481;51.118;6.940;2023-09-08T20:08:37;5.90;;;4.03;;
33108;SDS011;19481;51.118;6.940;2023-09-08T20:13:39;5.82;;;4.53;;
33108;SDS011;19481;51.118;6.940;2023-09-08T20:18:41;6.57;;;4.30;;
33108;SDS011;19481;51.118;6.940;2023-09-08T20:23:44;6.95;;;4.30;;
33108;SDS011;19481;51.118;6.940;2023-09-08T20:28:45;10.00;;;4.88;;
33108;SDS011;19481;51.118;6.940;2023-09-08T20:33:48;7.13;;;4.45;;
33108;SDS011;19481;51.118;6.940;2023-09-08T20:39:09;8.48;;;4.63;;
33108;SDS011;19481;51.118;6.940;2023-09-08T20:44:11;7.57;;;5.38;;
33108;SDS011;19481;51.118;6.940;2023-09-08T20:49:12;7.28;;;5.03;;
33108;SDS011;19481;51.118;6.940;2023-09-08T20:54:15;6.35;;;4.45;;
33108;SDS011;19481;51.118;6.940;2023-09-08T20:59:17;8.68;;;4.30;;
33108;SDS011;19481;51.118;6.940;2023-09-08T21:04:18;8.73;;;4.38;;
33108;SDS011;19481;51.118;6.940;2023-09-08T21:09:21;7.88;;;4.38;;
33108;SDS011;19481;51.118;6.940;2023-09-08T21:14:23;6.18;;;4.70;;
33108;SDS011;19481;51.118;6.940;2023-09-08T21:19:25;6.82;;;4.57;;
33108;SDS011;19481;51.118;6.940;2023-09-08T21:24:30;8.60;;;4.47;;
33108;SDS011;19481;51.118;6.940;2023-09-08T21:29:31;6.35;;;4.07;;
33108;SDS011;19481;51.118;6.940;2023-09-08T21:34:33;7.20;;;4.50;;
33108;SDS011;19481;51.118;6.940;2023-09-08T21:39:36;5.10;;;4.20;;
33108;SDS011;19481;51.118;6.940;2023-09-08T21:44:38;9.25;;;4.15;;
33108;SDS011;19481;51.118;6.940;2023-09-08T21:49:40;8.25;;;4.60;;
33108;SDS011;19481;51.118;6.940;2023-09-08T21:54:43;7.03;;;4.55;;
33108;SDS011;19481;51.118;6.940;2023-09-08T21:59:45;6.13;;;4.10;;
33108;SDS011;19481;51.118;6.940;2023-09-08T22:04:46;11.38;;;5.00;;
33108;SDS011;19481;51.118;6.940;2023-09-08T22:09:52;6.07;;;4.75;;
33108;SDS011;19481;51.118;6.940;2023-09-08T22:14:53;5.95;;;4.35;;
33108;SDS011;19481;51.118;6.940;2023-09-08T22:19:55;8.55;;;4.30;;
33108;SDS011;19481;51.118;6.940;2023-09-08T22:24:58;5.07;;;4.20;;
33108;SDS011;19481;51.118;6.940;2023-09-08T22:30:00;7.72;;;4.13;;
33108;SDS011;19481;51.118;6.940;2023-09-08T22:35:03;8.75;;;4.13;;
33108;SDS011;19481;51.118;6.940;2023-09-08T22:40:07;3.88;;;3.47;;
33108;SDS011;19481;51.118;6.940;2023-09-08T22:45:11;4.13;;;3.72;;
33108;SDS011;19481;51.118;6.940;2023-09-08T22:50:12;5.65;;;3.47;;
33108;SDS011;19481;51.118;6.940;2023-09-08T22:55:15;5.57;;;4.10;;
33108;SDS011;19481;51.118;6.940;2023-09-08T23:00:17;5.28;;;3.92;;
33108;SDS011;19481;51.118;6.940;2023-09-08T23:05:19;7.10;;;3.90;;
33108;SDS011;19481;51.118;6.940;2023-09-08T23:10:22;9.85;;;3.78;;
33108;SDS011;19481;51.118;6.940;2023-09-08T23:15:23;4.90;;;3.33;;
33108;SDS011;19481;51.118;6.940;2023-09-08T23:20:25;4.65;;;3.58;;
33108;SDS011;19481;51.118;6.940;2023-09-08T23:25:28;5.45;;;4.20;;
33108;SDS011;19481;51.118;6.940;2023-09-08T23:30:30;4.90;;;4.40;;
33108;SDS011;19481;51.118;6.940;2023-09-08T23:35:32;7.05;;;4.13;;
33108;SDS011;19481;51.118;6.940;2023-09-08T23:40:36;8.68;;;4.18;;
33108;SDS011;19481;51.118;6.940;2023-09-08T23:45:42;4.07;;;3.63;;
33108;SDS011;19481;51.118;6.940;2023-09-08T23:50:47;4.72;;;3.75;;
33108;SDS011;19481;51.118;6.940;2023-09-08T23:55:52;4.30;;;3.30;;
